Terminal Aerodrome Forecast
Issued by NWS

Home | Current Version | Previous Version | Text Only | Print | Product List | Glossary On
Versions: 1 2 3 4 5 6 7 8 9 10 11 12 13
000
FTUS45 KVEF 210528
TAFVGT
TAF
KVGT 210528Z 2106/2206 17011G18KT P6SM SKC
     FM211500 20016G24KT P6SM SKC
     FM212000 21023G32KT P6SM FEW080 BKN200
     FM220200 23012G18KT P6SM FEW080 FEW200
     FM220400 32014G20KT P6SM FEW080 FEW200=

USA.gov is the U.S. government's official web portal to all federal, state and local government web resources and services.